Time;durP1;ratioP1;P1;durP2;ratioP2;P2;SDS_P1;SDS_P2;PMS_P1;PMS_P2;Temp;Humidity;BMP_temperature;BMP_pressure;BME280_temperature;BME280_humidity;BME280_pressure;Samples;Min_cycle;Max_cycle;Signal;HPM_P1;HPM_P2
2023/03/03 00:00:04;;;;;;;41.43;29.47;;;;;;;;;;5070335;28;20445;-73
2023/03/03 00:02:31;;;;;;;39.43;28.80;;;;;;;;;;5069702;28;20468;-73
2023/03/03 00:04:58;;;;;;;43.30;28.60;;;;;;;;;;5070321;28;20460;-75
2023/03/03 00:07:25;;;;;;;44.20;30.90;;;;;;;;;;5069464;28;20449;-75
2023/03/03 00:09:53;;;;;;;38.17;29.07;;;;;;;;;;5069408;28;20494;-75
2023/03/03 00:12:23;;;;;;;40.90;30.00;;;;;;;;;;5068480;28;20824;-76
2023/03/03 00:14:50;;;;;;;40.13;30.57;;;;;;;;;;5068409;28;20432;-74
2023/03/03 00:17:22;;;;;;;41.10;30.03;;;;;;;;;;5068927;28;20456;-75
2023/03/03 00:19:49;;;;;;;40.70;30.90;;;;;;;;;;5068857;28;20451;-75
2023/03/03 00:22:19;;;;;;;44.43;30.47;;;;;;;;;;5069154;28;20475;-76
2023/03/03 00:24:47;;;;;;;37.67;28.80;;;;;;;;;;5068425;28;20574;-73
2023/03/03 00:27:23;;;;;;;41.40;29.80;;;;;;;;;;5076102;28;20473;-75
2023/03/03 00:29:53;;;;;;;41.20;30.27;;;;;;;;;;5082333;28;20437;-76
2023/03/03 00:32:22;;;;;;;37.83;29.60;;;;;;;;;;5081595;28;20606;-76
2023/03/03 00:34:50;;;;;;;47.53;29.90;;;;;;;;;;5078122;28;20440;-74
2023/03/03 00:37:26;;;;;;;40.87;29.73;;;;;;;;;;5078125;28;20433;-77
2023/03/03 00:39:53;;;;;;;44.47;30.33;;;;;;;;;;5069444;28;20478;-76
2023/03/03 00:42:22;;;;;;;45.00;32.17;;;;;;;;;;5069097;28;20499;-75
2023/03/03 00:44:50;;;;;;;44.20;32.03;;;;;;;;;;5069177;28;20448;-74
2023/03/03 00:47:27;;;;;;;39.50;29.70;;;;;;;;;;5072542;28;21061;-73
2023/03/03 00:49:55;;;;;;;38.90;29.43;;;;;;;;;;5072645;28;20448;-75
2023/03/03 00:52:23;;;;;;;46.13;33.00;;;;;;;;;;5072781;28;20456;-75
2023/03/03 00:54:50;;;;;;;45.60;32.70;;;;;;;;;;5072730;28;20988;-76
2023/03/03 00:57:18;;;;;;;46.43;33.13;;;;;;;;;;5072535;28;20439;-74
2023/03/03 00:59:46;;;;;;;51.30;33.33;;;;;;;;;;5072364;28;21100;-75
2023/03/03 01:02:13;;;;;;;40.30;29.00;;;;;;;;;;5072100;28;20479;-75
2023/03/03 01:04:41;;;;;;;47.50;31.90;;;;;;;;;;5071994;28;20460;-74
2023/03/03 01:07:08;;;;;;;44.67;32.03;;;;;;;;;;5072302;28;20894;-75
2023/03/03 01:09:35;;;;;;;46.97;31.00;;;;;;;;;;5072768;28;20665;-75
2023/03/03 01:12:02;;;;;;;37.13;28.87;;;;;;;;;;5072379;28;20456;-76
2023/03/03 01:14:30;;;;;;;43.50;30.73;;;;;;;;;;5071853;28;20932;-76
2023/03/03 01:16:58;;;;;;;47.47;30.03;;;;;;;;;;5061537;28;20442;-75
2023/03/03 01:19:25;;;;;;;44.80;30.90;;;;;;;;;;5051740;28;20536;-76
2023/03/03 01:21:52;;;;;;;48.00;31.00;;;;;;;;;;5051738;28;20461;-74
2023/03/03 01:24:19;;;;;;;41.80;31.03;;;;;;;;;;5052089;28;20445;-74
2023/03/03 01:26:46;;;;;;;43.70;29.37;;;;;;;;;;5051835;28;20490;-74
2023/03/03 01:29:13;;;;;;;44.23;30.20;;;;;;;;;;5051979;28;20473;-73
2023/03/03 01:31:41;;;;;;;41.93;30.43;;;;;;;;;;5052218;28;20442;-76
2023/03/03 01:34:09;;;;;;;45.27;29.67;;;;;;;;;;5052320;28;21015;-74
2023/03/03 01:36:36;;;;;;;39.20;30.10;;;;;;;;;;5052011;28;20511;-74
2023/03/03 01:39:03;;;;;;;48.30;31.30;;;;;;;;;;5051849;28;20481;-74
2023/03/03 01:41:32;;;;;;;42.17;30.53;;;;;;;;;;5051810;28;20941;-73
2023/03/03 01:44:00;;;;;;;46.50;30.80;;;;;;;;;;5051342;28;20477;-74
2023/03/03 01:46:34;;;;;;;43.17;29.83;;;;;;;;;;5051896;28;20495;-74
2023/03/03 01:49:02;;;;;;;45.60;31.10;;;;;;;;;;5051876;28;20492;-73
2023/03/03 01:51:32;;;;;;;44.20;31.33;;;;;;;;;;5051731;28;20446;-75
2023/03/03 01:54:01;;;;;;;44.97;30.47;;;;;;;;;;5051329;28;20458;-76
2023/03/03 01:56:28;;;;;;;38.87;31.47;;;;;;;;;;5051131;28;20776;-73
2023/03/03 01:58:58;;;;;;;46.20;30.40;;;;;;;;;;5051870;28;20446;-74
2023/03/03 02:01:27;;;;;;;43.67;30.20;;;;;;;;;;5051956;28;20454;-73
2023/03/03 02:03:54;;;;;;;44.17;30.50;;;;;;;;;;5051701;28;20478;-74
2023/03/03 02:06:24;;;;;;;47.40;30.47;;;;;;;;;;5051307;28;20473;-74
2023/03/03 02:08:55;;;;;;;44.50;31.07;;;;;;;;;;5051744;28;20437;-74
2023/03/03 02:11:23;;;;;;;42.80;30.43;;;;;;;;;;5052302;28;20445;-76
2023/03/03 02:13:50;;;;;;;43.70;31.10;;;;;;;;;;5052607;28;20466;-75
2023/03/03 02:16:17;;;;;;;44.40;30.80;;;;;;;;;;5058237;28;20440;-76
2023/03/03 02:18:44;;;;;;;45.33;29.87;;;;;;;;;;5072942;28;20433;-76
2023/03/03 02:21:13;;;;;;;43.83;29.80;;;;;;;;;;5072575;28;20449;-74
2023/03/03 02:23:45;;;;;;;42.63;29.37;;;;;;;;;;5079261;28;20479;-74
2023/03/03 02:26:14;;;;;;;43.83;30.07;;;;;;;;;;5079041;28;20472;-75
2023/03/03 02:28:42;;;;;;;42.23;30.50;;;;;;;;;;5075183;28;20824;-74
2023/03/03 02:31:11;;;;;;;39.33;29.23;;;;;;;;;;5070975;28;20441;-75
2023/03/03 02:33:39;;;;;;;40.40;28.57;;;;;;;;;;5071034;28;20468;-76
2023/03/03 02:36:06;;;;;;;44.73;31.17;;;;;;;;;;5071401;28;20448;-75
2023/03/03 02:38:37;;;;;;;38.33;28.50;;;;;;;;;;5071199;28;20449;-75
2023/03/03 02:41:08;;;;;;;48.30;32.13;;;;;;;;;;5070768;28;20429;-74
2023/03/03 02:43:41;;;;;;;44.43;29.90;;;;;;;;;;5070408;28;20503;-74
2023/03/03 02:46:08;;;;;;;46.70;31.97;;;;;;;;;;5070437;28;20496;-73
2023/03/03 02:48:35;;;;;;;41.40;29.33;;;;;;;;;;5071301;28;20453;-74
2023/03/03 02:51:02;;;;;;;43.60;29.10;;;;;;;;;;5071159;28;20817;-73
2023/03/03 02:53:29;;;;;;;45.87;31.20;;;;;;;;;;5071316;28;20453;-74
2023/03/03 02:55:56;;;;;;;42.80;29.00;;;;;;;;;;5071361;28;20544;-74
2023/03/03 02:58:23;;;;;;;45.20;29.63;;;;;;;;;;5070774;28;20459;-74
2023/03/03 03:00:51;;;;;;;47.10;30.60;;;;;;;;;;5070341;28;20814;-74
2023/03/03 03:03:18;;;;;;;40.23;29.73;;;;;;;;;;5069755;28;20465;-74
2023/03/03 03:05:45;;;;;;;43.00;30.13;;;;;;;;;;5070056;28;20452;-75
2023/03/03 03:08:12;;;;;;;45.73;30.53;;;;;;;;;;5070356;28;20445;-74
2023/03/03 03:10:39;;;;;;;42.77;29.13;;;;;;;;;;5070159;28;20445;-76
2023/03/03 03:13:06;;;;;;;45.70;30.47;;;;;;;;;;5070079;28;20460;-75
2023/03/03 03:15:35;;;;;;;43.23;30.57;;;;;;;;;;5069990;28;20451;-73
2023/03/03 03:18:03;;;;;;;49.13;32.50;;;;;;;;;;5050455;28;20496;-75
2023/03/03 03:20:30;;;;;;;44.27;31.47;;;;;;;;;;5052622;28;20453;-74
2023/03/03 03:22:57;;;;;;;48.37;31.80;;;;;;;;;;5049404;28;20457;-75
2023/03/03 03:25:24;;;;;;;47.67;29.53;;;;;;;;;;5050095;28;20453;-75
2023/03/03 03:27:51;;;;;;;48.00;32.17;;;;;;;;;;5050056;28;20481;-74
2023/03/03 03:30:19;;;;;;;48.77;32.60;;;;;;;;;;5050111;28;20956;-77
2023/03/03 03:32:46;;;;;;;48.03;30.47;;;;;;;;;;5053086;28;20468;-73
2023/03/03 03:35:16;;;;;;;45.50;31.20;;;;;;;;;;5073956;28;20457;-75
2023/03/03 03:37:43;;;;;;;41.93;30.63;;;;;;;;;;5073186;28;20475;-74
2023/03/03 03:40:10;;;;;;;46.33;30.27;;;;;;;;;;5070450;28;20451;-76
2023/03/03 03:42:39;;;;;;;51.23;32.43;;;;;;;;;;5070779;28;20452;-73
2023/03/03 03:45:07;;;;;;;45.90;30.97;;;;;;;;;;5073936;28;20630;-74
2023/03/03 03:47:34;;;;;;;49.90;32.17;;;;;;;;;;5073091;28;20495;-74
2023/03/03 03:50:01;;;;;;;46.53;32.37;;;;;;;;;;5072212;28;20447;-74
2023/03/03 03:52:29;;;;;;;45.27;31.23;;;;;;;;;;5069738;28;20461;-73
2023/03/03 03:54:56;;;;;;;48.00;32.17;;;;;;;;;;5069804;28;20440;-75
2023/03/03 03:57:23;;;;;;;48.27;32.93;;;;;;;;;;5069638;28;20441;-76
2023/03/03 03:59:51;;;;;;;51.23;34.03;;;;;;;;;;5069849;28;20470;-75
2023/03/03 04:02:18;;;;;;;52.70;33.20;;;;;;;;;;5069943;28;20465;-76
2023/03/03 04:04:45;;;;;;;51.63;33.20;;;;;;;;;;5069456;28;20785;-74
2023/03/03 04:07:12;;;;;;;54.70;35.17;;;;;;;;;;5069792;28;20888;-76
2023/03/03 04:09:40;;;;;;;52.20;32.83;;;;;;;;;;5069559;28;20440;-75
2023/03/03 04:12:07;;;;;;;55.20;35.63;;;;;;;;;;5069517;28;20815;-75
2023/03/03 04:14:34;;;;;;;52.90;32.80;;;;;;;;;;5069120;28;20823;-74
2023/03/03 04:17:01;;;;;;;50.43;32.60;;;;;;;;;;5058472;28;20442;-74
2023/03/03 04:19:28;;;;;;;47.67;33.07;;;;;;;;;;5049482;28;20445;-73
2023/03/03 04:21:55;;;;;;;51.17;34.37;;;;;;;;;;5063137;28;20934;-74
2023/03/03 04:24:22;;;;;;;50.00;33.00;;;;;;;;;;5052841;28;20449;-75
2023/03/03 04:26:51;;;;;;;53.23;33.27;;;;;;;;;;5052934;28;20485;-74
2023/03/03 04:29:18;;;;;;;51.50;33.67;;;;;;;;;;5053672;28;20445;-74
2023/03/03 04:31:45;;;;;;;53.10;33.53;;;;;;;;;;5053118;28;20441;-76
2023/03/03 04:34:12;;;;;;;55.40;34.70;;;;;;;;;;5052755;28;20493;-75
2023/03/03 04:36:39;;;;;;;55.03;34.73;;;;;;;;;;5053040;28;20433;-74
2023/03/03 04:39:06;;;;;;;49.70;34.30;;;;;;;;;;5053065;28;20441;-74
2023/03/03 04:41:34;;;;;;;48.97;33.70;;;;;;;;;;5053128;28;20460;-76
2023/03/03 04:44:02;;;;;;;55.87;36.03;;;;;;;;;;5052704;28;20496;-76
2023/03/03 04:46:29;;;;;;;51.77;35.83;;;;;;;;;;5052676;28;20446;-74
2023/03/03 04:48:56;;;;;;;54.80;35.70;;;;;;;;;;5052906;28;20434;-76
2023/03/03 04:51:23;;;;;;;51.73;33.87;;;;;;;;;;5052915;28;20538;-73
2023/03/03 04:53:50;;;;;;;49.80;35.10;;;;;;;;;;5052725;28;20473;-75
2023/03/03 04:56:17;;;;;;;56.33;35.50;;;;;;;;;;5053592;28;20809;-74
2023/03/03 04:58:44;;;;;;;48.37;35.20;;;;;;;;;;5053059;28;20507;-74
2023/03/03 05:01:14;;;;;;;49.87;34.57;;;;;;;;;;5052999;28;20472;-74
2023/03/03 05:03:41;;;;;;;53.80;35.10;;;;;;;;;;5052427;28;20461;-74
2023/03/03 05:06:08;;;;;;;49.17;34.70;;;;;;;;;;5052472;28;20461;-73
2023/03/03 05:08:35;;;;;;;54.77;35.37;;;;;;;;;;5057422;28;20485;-75
2023/03/03 05:11:02;;;;;;;50.93;36.70;;;;;;;;;;5057658;28;20453;-75
2023/03/03 05:13:30;;;;;;;57.70;35.83;;;;;;;;;;5057780;28;20469;-74
2023/03/03 05:15:57;;;;;;;51.70;34.83;;;;;;;;;;5069910;28;20433;-74
2023/03/03 05:18:26;;;;;;;49.20;33.43;;;;;;;;;;5076938;28;20441;-75
2023/03/03 05:20:53;;;;;;;52.90;35.33;;;;;;;;;;5078342;28;20523;-73
2023/03/03 05:23:20;;;;;;;54.63;35.00;;;;;;;;;;5076570;28;20475;-74
2023/03/03 05:25:48;;;;;;;53.13;35.77;;;;;;;;;;5082209;28;20471;-74
2023/03/03 05:28:15;;;;;;;54.27;34.50;;;;;;;;;;5072539;28;20844;-76
2023/03/03 05:30:42;;;;;;;56.13;35.90;;;;;;;;;;5071747;28;20463;-74
2023/03/03 05:33:11;;;;;;;57.73;36.30;;;;;;;;;;5070855;28;20471;-75
2023/03/03 05:35:39;;;;;;;47.40;32.30;;;;;;;;;;5073302;28;20561;-75
2023/03/03 05:38:06;;;;;;;56.40;34.10;;;;;;;;;;5073759;28;20781;-75
2023/03/03 05:40:33;;;;;;;50.47;34.20;;;;;;;;;;5072535;28;20444;-75
2023/03/03 05:43:01;;;;;;;58.90;35.40;;;;;;;;;;5072058;28;20492;-74
2023/03/03 05:45:28;;;;;;;51.43;34.07;;;;;;;;;;5072788;28;20548;-75
2023/03/03 05:47:55;;;;;;;53.10;34.83;;;;;;;;;;5071438;28;20579;-73
2023/03/03 05:50:23;;;;;;;48.40;33.93;;;;;;;;;;5072052;28;20528;-75
2023/03/03 05:52:51;;;;;;;55.27;34.37;;;;;;;;;;5071716;28;20464;-74
2023/03/03 05:55:19;;;;;;;50.83;34.23;;;;;;;;;;5071750;28;20448;-74
2023/03/03 05:57:46;;;;;;;46.17;33.83;;;;;;;;;;5071895;28;20791;-73
2023/03/03 06:00:15;;;;;;;51.60;33.07;;;;;;;;;;5071734;28;20448;-75
2023/03/03 06:02:42;;;;;;;49.23;32.40;;;;;;;;;;5071703;28;20460;-74
2023/03/03 06:05:10;;;;;;;49.60;30.83;;;;;;;;;;5071387;28;20456;-75
2023/03/03 06:07:37;;;;;;;47.77;32.50;;;;;;;;;;5071680;28;20602;-74
2023/03/03 06:10:06;;;;;;;46.50;30.90;;;;;;;;;;5071530;28;20452;-75
2023/03/03 06:12:33;;;;;;;42.20;29.80;;;;;;;;;;5071125;28;20462;-74
2023/03/03 06:15:00;;;;;;;46.27;31.33;;;;;;;;;;5071722;28;20440;-74
2023/03/03 06:17:27;;;;;;;44.27;30.50;;;;;;;;;;5056762;28;20500;-76
2023/03/03 06:19:54;;;;;;;45.03;30.80;;;;;;;;;;5052882;28;20445;-73
2023/03/03 06:22:21;;;;;;;42.73;28.50;;;;;;;;;;5054171;28;20470;-74
2023/03/03 06:24:48;;;;;;;44.23;29.47;;;;;;;;;;5054055;28;20945;-75
2023/03/03 06:27:17;;;;;;;41.53;28.50;;;;;;;;;;5052698;28;20477;-75
2023/03/03 06:29:44;;;;;;;48.43;29.87;;;;;;;;;;5054058;28;20448;-77
2023/03/03 06:32:11;;;;;;;40.87;28.13;;;;;;;;;;5050960;28;20453;-76
2023/03/03 06:34:38;;;;;;;39.07;28.43;;;;;;;;;;5051009;28;20441;-76
2023/03/03 06:37:05;;;;;;;43.43;27.93;;;;;;;;;;5051099;28;20479;-77
2023/03/03 06:39:33;;;;;;;41.77;28.53;;;;;;;;;;5051253;28;20448;-76
2023/03/03 06:42:00;;;;;;;44.00;30.17;;;;;;;;;;5050653;28;20472;-76
2023/03/03 06:44:28;;;;;;;36.63;27.13;;;;;;;;;;5050577;28;20448;-74
2023/03/03 06:46:57;;;;;;;41.10;28.20;;;;;;;;;;5050572;28;20450;-76
2023/03/03 06:49:24;;;;;;;40.40;27.73;;;;;;;;;;5050643;28;20801;-74
2023/03/03 06:51:51;;;;;;;41.50;29.70;;;;;;;;;;5050978;28;20511;-74
2023/03/03 06:54:20;;;;;;;49.13;30.67;;;;;;;;;;5058698;28;20472;-75
2023/03/03 06:56:47;;;;;;;45.20;30.20;;;;;;;;;;5068261;28;20437;-73
2023/03/03 06:59:15;;;;;;;42.60;29.33;;;;;;;;;;5066662;28;20440;-75
2023/03/03 07:01:44;;;;;;;35.67;26.63;;;;;;;;;;5065097;28;20936;-75
2023/03/03 07:04:17;;;;;;;51.60;32.13;;;;;;;;;;5061737;28;20464;-74
2023/03/03 07:06:44;;;;;;;41.47;29.80;;;;;;;;;;5061156;28;20935;-75
2023/03/03 07:09:15;;;;;;;40.03;26.50;;;;;;;;;;5063685;28;20480;-75
2023/03/03 07:11:42;;;;;;;39.53;28.80;;;;;;;;;;5058324;28;20445;-76
2023/03/03 07:14:14;;;;;;;49.00;30.30;;;;;;;;;;5051348;28;20887;-76
2023/03/03 07:16:41;;;;;;;40.10;28.17;;;;;;;;;;5053079;28;20476;-76
2023/03/03 07:19:18;;;;;;;37.27;28.00;;;;;;;;;;5050231;28;20790;-76
2023/03/03 07:21:45;;;;;;;37.60;26.10;;;;;;;;;;5050423;28;20453;-77
2023/03/03 07:24:19;;;;;;;45.97;29.17;;;;;;;;;;5050239;28;20964;-75
2023/03/03 07:26:46;;;;;;;38.00;27.03;;;;;;;;;;5053131;28;20442;-74
2023/03/03 07:29:17;;;;;;;39.27;27.27;;;;;;;;;;5050452;28;20487;-74
2023/03/03 07:31:46;;;;;;;38.17;26.33;;;;;;;;;;5050037;28;20445;-74
2023/03/03 07:34:17;;;;;;;37.53;27.00;;;;;;;;;;5049778;28;20473;-75
2023/03/03 07:36:44;;;;;;;39.73;27.70;;;;;;;;;;5065002;28;20602;-75
2023/03/03 07:39:26;;;;;;;39.37;29.90;;;;;;;;;;5070764;28;20994;-74
2023/03/03 07:41:55;;;;;;;36.90;27.07;;;;;;;;;;5068352;28;20471;-75
2023/03/03 07:44:23;;;;;;;34.40;25.80;;;;;;;;;;5070511;28;20486;-75
2023/03/03 07:46:51;;;;;;;36.40;27.03;;;;;;;;;;5071051;28;20448;-75
2023/03/03 07:49:23;;;;;;;35.43;27.30;;;;;;;;;;5070244;28;20824;-75
2023/03/03 07:51:53;;;;;;;39.13;27.90;;;;;;;;;;5069816;28;20445;-75
2023/03/03 07:54:36;;;;;;;43.60;28.00;;;;;;;;;;5069336;28;20448;-74
2023/03/03 07:57:12;;;;;;;39.90;29.07;;;;;;;;;;5073793;28;20441;-75
2023/03/03 07:59:42;;;;;;;40.90;28.00;;;;;;;;;;5074119;28;20467;-74
2023/03/03 08:02:18;;;;;;;38.40;27.30;;;;;;;;;;5074138;28;20452;-74
2023/03/03 08:04:51;;;;;;;37.27;26.53;;;;;;;;;;5073623;28;20479;-75
2023/03/03 08:07:19;;;;;;;33.90;25.40;;;;;;;;;;5073385;28;21019;-75
2023/03/03 08:09:50;;;;;;;38.60;27.37;;;;;;;;;;5073677;28;20444;-73
2023/03/03 08:12:25;;;;;;;39.50;27.53;;;;;;;;;;5074052;28;20541;-74
2023/03/03 08:14:54;;;;;;;44.23;27.53;;;;;;;;;;5075321;28;20444;-74
2023/03/03 08:17:22;;;;;;;36.87;27.30;;;;;;;;;;5060565;28;20789;-75
2023/03/03 08:19:51;;;;;;;45.50;29.03;;;;;;;;;;5053326;28;20445;-74
2023/03/03 08:22:19;;;;;;;36.07;25.80;;;;;;;;;;5053353;28;20781;-75
2023/03/03 08:24:46;;;;;;;37.90;28.10;;;;;;;;;;5053300;28;20446;-75
2023/03/03 08:27:13;;;;;;;43.07;26.57;;;;;;;;;;5054166;28;20452;-75
2023/03/03 08:29:40;;;;;;;36.30;26.53;;;;;;;;;;5054606;28;20488;-74
2023/03/03 08:32:07;;;;;;;37.80;27.90;;;;;;;;;;5053351;28;20440;-74
2023/03/03 08:34:34;;;;;;;40.90;27.30;;;;;;;;;;5054489;28;20853;-74
2023/03/03 08:37:03;;;;;;;37.53;27.13;;;;;;;;;;5054539;28;20452;-74
2023/03/03 08:39:30;;;;;;;37.73;26.83;;;;;;;;;;5053517;28;20463;-74
2023/03/03 08:41:57;;;;;;;39.97;26.73;;;;;;;;;;5053213;28;20453;-74
2023/03/03 08:44:24;;;;;;;35.03;27.10;;;;;;;;;;5052555;28;20960;-75
2023/03/03 08:46:51;;;;;;;37.20;27.60;;;;;;;;;;5052769;28;20448;-75
2023/03/03 08:49:18;;;;;;;38.50;27.43;;;;;;;;;;5052975;28;20485;-75
2023/03/03 08:51:45;;;;;;;36.20;26.00;;;;;;;;;;5052975;28;20536;-74
2023/03/03 08:54:13;;;;;;;34.87;26.00;;;;;;;;;;5052396;28;20958;-75
2023/03/03 08:56:41;;;;;;;35.63;26.40;;;;;;;;;;5052624;28;20817;-74
2023/03/03 08:59:08;;;;;;;30.77;23.83;;;;;;;;;;5052609;28;20445;-74
2023/03/03 09:01:35;;;;;;;32.20;25.10;;;;;;;;;;5052490;28;20449;-73
2023/03/03 09:04:02;;;;;;;30.80;23.40;;;;;;;;;;5052406;28;20497;-74
2023/03/03 09:06:29;;;;;;;32.53;24.47;;;;;;;;;;5052734;28;20929;-73
2023/03/03 09:08:56;;;;;;;36.07;25.87;;;;;;;;;;5052600;28;20959;-74
2023/03/03 09:11:26;;;;;;;26.63;22.63;;;;;;;;;;5052552;28;20496;-74
2023/03/03 09:13:56;;;;;;;34.07;25.47;;;;;;;;;;5051843;28;20446;-74
2023/03/03 09:16:23;;;;;;;29.60;24.50;;;;;;;;;;5058570;28;20441;-75
2023/03/03 09:18:50;;;;;;;31.23;25.63;;;;;;;;;;5072656;28;20452;-74
2023/03/03 09:21:19;;;;;;;27.60;23.33;;;;;;;;;;5072294;28;20445;-76
2023/03/03 09:23:49;;;;;;;31.03;24.57;;;;;;;;;;5071797;28;20968;-76
2023/03/03 09:26:26;;;;;;;28.10;22.40;;;;;;;;;;5072354;28;20460;-75
2023/03/03 09:28:55;;;;;;;28.47;24.33;;;;;;;;;;5072010;28;20497;-75
2023/03/03 09:31:25;;;;;;;29.10;24.50;;;;;;;;;;5071540;28;20924;-74
2023/03/03 09:33:56;;;;;;;29.80;23.47;;;;;;;;;;5072015;28;20547;-74
2023/03/03 09:36:25;;;;;;;26.80;23.23;;;;;;;;;;5071673;28;20526;-74
2023/03/03 09:38:52;;;;;;;29.50;25.27;;;;;;;;;;5071692;28;20441;-74
2023/03/03 09:41:27;;;;;;;29.13;24.10;;;;;;;;;;5072062;28;20460;-75
2023/03/03 09:44:05;;;;;;;29.07;24.07;;;;;;;;;;5078344;28;20464;-73
2023/03/03 09:46:38;;;;;;;32.07;23.20;;;;;;;;;;5072607;28;20437;-75
2023/03/03 09:49:10;;;;;;;29.73;23.77;;;;;;;;;;5072390;28;20472;-74
2023/03/03 09:51:45;;;;;;;34.37;24.20;;;;;;;;;;5072762;28;20452;-74
2023/03/03 09:54:16;;;;;;;29.57;25.77;;;;;;;;;;5071773;28;20479;-75
2023/03/03 09:56:45;;;;;;;35.23;26.50;;;;;;;;;;5072009;28;20441;-75
2023/03/03 09:59:23;;;;;;;29.67;24.10;;;;;;;;;;5071775;28;20477;-75
2023/03/03 10:02:02;;;;;;;35.27;24.63;;;;;;;;;;5071583;28;20475;-75
2023/03/03 10:04:44;;;;;;;32.57;26.93;;;;;;;;;;5071390;28;20459;-75
2023/03/03 10:07:19;;;;;;;34.30;26.80;;;;;;;;;;5071980;28;20440;-75
2023/03/03 10:09:54;;;;;;;30.93;25.27;;;;;;;;;;5071051;28;20484;-75
2023/03/03 10:12:26;;;;;;;30.30;24.30;;;;;;;;;;5071171;28;20475;-74
2023/03/03 10:15:10;;;;;;;33.23;27.33;;;;;;;;;;5071269;28;20448;-73
2023/03/03 10:17:45;;;;;;;30.93;25.67;;;;;;;;;;5054300;28;20840;-74
2023/03/03 10:20:18;;;;;;;37.23;26.87;;;;;;;;;;5050931;28;20483;-75
2023/03/03 10:22:49;;;;;;;34.77;26.43;;;;;;;;;;5050729;28;20824;-74
2023/03/03 10:25:22;;;;;;;32.50;26.60;;;;;;;;;;5051249;28;20441;-74
2023/03/03 10:27:58;;;;;;;32.43;26.87;;;;;;;;;;5050691;28;20491;-75
2023/03/03 10:30:28;;;;;;;32.10;25.57;;;;;;;;;;5052072;28;20504;-75
2023/03/03 10:32:58;;;;;;;34.23;26.60;;;;;;;;;;5051105;28;20485;-74
2023/03/03 10:35:33;;;;;;;32.83;26.70;;;;;;;;;;5051738;28;20464;-74
2023/03/03 10:38:10;;;;;;;33.87;29.10;;;;;;;;;;5052074;28;20449;-74
2023/03/03 10:40:40;;;;;;;33.43;25.83;;;;;;;;;;5051978;28;20456;-75
2023/03/03 10:43:25;;;;;;;34.43;27.70;;;;;;;;;;5050510;28;20970;-73
2023/03/03 10:46:00;;;;;;;32.30;28.30;;;;;;;;;;5051416;28;21020;-75
2023/03/03 10:48:36;;;;;;;33.77;29.00;;;;;;;;;;5051719;28;20444;-75
2023/03/03 10:51:08;;;;;;;32.17;27.20;;;;;;;;;;5051760;28;20968;-74
2023/03/03 10:53:38;;;;;;;32.20;26.20;;;;;;;;;;5051374;28;20466;-75
2023/03/03 10:56:15;;;;;;;36.07;28.27;;;;;;;;;;5051036;28;20453;-74
2023/03/03 10:58:46;;;;;;;34.23;28.70;;;;;;;;;;5051137;28;20476;-73
2023/03/03 11:01:17;;;;;;;36.20;28.13;;;;;;;;;;5051059;28;20441;-74
2023/03/03 11:03:57;;;;;;;37.50;29.90;;;;;;;;;;5057561;28;20499;-74
2023/03/03 11:06:26;;;;;;;33.13;28.07;;;;;;;;;;5055835;28;20442;-75
2023/03/03 11:08:56;;;;;;;34.60;29.03;;;;;;;;;;5050886;28;20481;-75
2023/03/03 11:11:27;;;;;;;31.53;27.87;;;;;;;;;;5050069;28;20927;-75
2023/03/03 11:13:57;;;;;;;33.47;27.20;;;;;;;;;;5049925;28;20457;-74
2023/03/03 11:16:34;;;;;;;34.03;28.67;;;;;;;;;;5056007;28;20452;-74
2023/03/03 11:19:08;;;;;;;40.63;28.73;;;;;;;;;;5071290;28;20448;-75
2023/03/03 11:21:40;;;;;;;32.43;29.07;;;;;;;;;;5071130;28;20456;-74
2023/03/03 11:24:22;;;;;;;39.60;29.20;;;;;;;;;;5071941;28;20472;-76
2023/03/03 11:26:53;;;;;;;33.10;29.23;;;;;;;;;;5071662;28;20429;-75
2023/03/03 11:29:32;;;;;;;40.83;30.23;;;;;;;;;;5069881;28;20499;-74
2023/03/03 11:32:03;;;;;;;36.90;28.20;;;;;;;;;;5069836;28;20440;-74
2023/03/03 11:34:46;;;;;;;34.90;29.43;;;;;;;;;;5070261;28;20443;-76
2023/03/03 11:37:16;;;;;;;34.33;28.47;;;;;;;;;;5068069;28;20448;-75
2023/03/03 11:39:44;;;;;;;30.63;27.33;;;;;;;;;;5069996;28;20520;-75
2023/03/03 11:42:15;;;;;;;35.47;28.40;;;;;;;;;;5069610;28;20444;-76
2023/03/03 11:44:45;;;;;;;31.47;27.20;;;;;;;;;;5069353;28;21002;-73
2023/03/03 11:47:17;;;;;;;36.30;28.53;;;;;;;;;;5070892;28;20447;-75
2023/03/03 11:49:47;;;;;;;31.23;27.50;;;;;;;;;;5072353;28;21121;-74
2023/03/03 11:52:21;;;;;;;34.37;28.27;;;;;;;;;;5071054;28;20495;-75
2023/03/03 11:54:51;;;;;;;32.73;27.67;;;;;;;;;;5072550;28;20468;-76
2023/03/03 11:57:21;;;;;;;32.70;26.60;;;;;;;;;;5071612;28;20437;-75
2023/03/03 11:59:54;;;;;;;30.40;27.10;;;;;;;;;;5071905;28;20482;-75
2023/03/03 12:02:33;;;;;;;32.23;27.00;;;;;;;;;;5072421;28;20479;-75
2023/03/03 12:05:05;;;;;;;36.83;28.07;;;;;;;;;;5070952;28;20459;-74
2023/03/03 12:07:37;;;;;;;31.03;27.27;;;;;;;;;;5071823;28;20445;-74
2023/03/03 12:10:11;;;;;;;29.70;26.50;;;;;;;;;;5070502;28;21022;-74
2023/03/03 12:12:43;;;;;;;30.13;25.40;;;;;;;;;;5072572;28;20529;-73
2023/03/03 12:15:18;;;;;;;32.63;26.13;;;;;;;;;;5071514;28;20494;-75
2023/03/03 12:18:02;;;;;;;35.80;26.57;;;;;;;;;;5053253;28;20495;-75
2023/03/03 12:20:34;;;;;;;31.57;26.33;;;;;;;;;;5018459;28;20448;-74
2023/03/03 12:23:10;;;;;;;32.13;25.43;;;;;;;;;;5049171;28;20458;-74
2023/03/03 12:25:38;;;;;;;28.43;25.20;;;;;;;;;;5049242;28;20448;-74
2023/03/03 12:28:07;;;;;;;33.00;26.23;;;;;;;;;;5049464;28;20449;-73
2023/03/03 12:30:50;;;;;;;27.40;24.57;;;;;;;;;;5049572;28;20500;-75
2023/03/03 12:33:22;;;;;;;31.10;25.77;;;;;;;;;;5049039;28;20508;-75
2023/03/03 12:35:54;;;;;;;28.80;25.57;;;;;;;;;;5049314;28;20449;-75
2023/03/03 12:38:28;;;;;;;29.83;25.57;;;;;;;;;;5048975;28;20972;-76
2023/03/03 12:40:58;;;;;;;28.60;25.47;;;;;;;;;;5049423;28;20444;-74
2023/03/03 12:43:32;;;;;;;31.57;25.53;;;;;;;;;;5052458;28;20510;-74
2023/03/03 12:46:05;;;;;;;30.33;26.30;;;;;;;;;;5052985;28;20469;-73
2023/03/03 12:48:36;;;;;;;30.40;25.53;;;;;;;;;;5052787;28;20449;-74
2023/03/03 12:51:07;;;;;;;26.93;24.00;;;;;;;;;;5052952;28;20485;-75
2023/03/03 12:53:41;;;;;;;27.87;24.90;;;;;;;;;;5052526;28;20461;-73
2023/03/03 12:56:09;;;;;;;31.40;25.90;;;;;;;;;;5052579;28;20441;-75
2023/03/03 12:58:43;;;;;;;28.60;24.33;;;;;;;;;;5052841;28;20468;-74
2023/03/03 13:01:17;;;;;;;29.20;24.97;;;;;;;;;;5052655;28;21194;-75
2023/03/03 13:03:50;;;;;;;27.43;24.40;;;;;;;;;;5052626;28;20465;-76
2023/03/03 13:06:22;;;;;;;30.47;27.07;;;;;;;;;;5052714;28;20449;-76
2023/03/03 13:08:57;;;;;;;26.27;23.47;;;;;;;;;;5052433;28;20456;-76
2023/03/03 13:11:36;;;;;;;29.00;25.87;;;;;;;;;;5052969;28;20448;-74
2023/03/03 13:14:11;;;;;;;28.47;25.53;;;;;;;;;;5052557;28;20480;-74
2023/03/03 13:16:39;;;;;;;28.57;25.50;;;;;;;;;;5060131;28;20440;-74
2023/03/03 13:19:08;;;;;;;28.20;25.17;;;;;;;;;;5076124;28;20966;-75
2023/03/03 13:21:37;;;;;;;27.03;24.17;;;;;;;;;;5076721;28;20498;-74
2023/03/03 13:24:11;;;;;;;27.20;24.40;;;;;;;;;;5072383;28;20464;-74
2023/03/03 13:26:40;;;;;;;28.10;25.20;;;;;;;;;;5072628;28;20463;-76
2023/03/03 13:29:14;;;;;;;30.93;26.57;;;;;;;;;;5072327;28;20865;-75
2023/03/03 13:31:41;;;;;;;29.10;25.20;;;;;;;;;;5072454;28;20483;-75
2023/03/03 13:34:09;;;;;;;32.27;26.83;;;;;;;;;;5072326;28;20510;-76
2023/03/03 13:36:39;;;;;;;32.20;26.10;;;;;;;;;;5072296;28;20448;-76
2023/03/03 13:39:13;;;;;;;30.17;26.10;;;;;;;;;;5072310;28;20440;-75
2023/03/03 13:41:45;;;;;;;30.37;25.60;;;;;;;;;;5072337;28;20448;-76
2023/03/03 13:44:14;;;;;;;29.13;26.00;;;;;;;;;;5071677;28;20551;-74
2023/03/03 13:46:44;;;;;;;30.17;26.97;;;;;;;;;;5071821;28;20813;-74
2023/03/03 13:49:20;;;;;;;29.40;26.37;;;;;;;;;;5071621;28;20960;-74
2023/03/03 13:51:53;;;;;;;29.23;25.47;;;;;;;;;;5072142;28;20452;-75
2023/03/03 13:54:33;;;;;;;30.60;26.50;;;;;;;;;;5071533;28;20444;-74
2023/03/03 13:57:10;;;;;;;27.93;24.93;;;;;;;;;;5074053;28;20944;-75
2023/03/03 13:59:43;;;;;;;29.40;24.73;;;;;;;;;;5072221;28;20448;-74
2023/03/03 14:02:22;;;;;;;27.23;24.30;;;;;;;;;;5071993;28;20460;-75
2023/03/03 14:04:53;;;;;;;30.17;25.10;;;;;;;;;;5071619;28;20461;-75
2023/03/03 14:07:23;;;;;;;29.80;24.63;;;;;;;;;;5072256;28;20452;-75
2023/03/03 14:09:57;;;;;;;40.00;35.80;;;;;;;;;;5073264;28;20892;-75
2023/03/03 14:12:26;;;;;;;50.50;38.93;;;;;;;;;;5072720;28;20472;-76
2023/03/03 14:14:57;;;;;;;29.03;25.77;;;;;;;;;;5072589;28;20450;-75
2023/03/03 14:17:30;;;;;;;30.30;27.07;;;;;;;;;;5058787;28;20434;-77
2023/03/03 14:20:01;;;;;;;30.77;27.27;;;;;;;;;;5052595;28;20445;-75
2023/03/03 14:22:35;;;;;;;29.10;26.00;;;;;;;;;;5051415;28;20466;-75
2023/03/03 14:25:06;;;;;;;30.07;26.00;;;;;;;;;;5051462;28;20442;-75
2023/03/03 14:27:39;;;;;;;30.10;26.53;;;;;;;;;;5051251;28;20464;-76
2023/03/03 14:30:36;;;;;;;28.80;25.70;;;;;;;;;;5053373;28;20474;-77